Time;durP1;ratioP1;P1;durP2;ratioP2;P2;SDS_P1;SDS_P2;PMS_P1;PMS_P2;Temp;Humidity;BMP_temperature;BMP_pressure;BME280_temperature;BME280_humidity;BME280_pressure;Samples;Min_cycle;Max_cycle;Signal;HPM_P1;HPM_P2
2023/08/20 00:00:28;;;;;;;21.83;13.23;;;21.50;99.90;;;;;;5055703;28;20025;-69
2023/08/20 00:03:02;;;;;;;22.08;13.02;;;21.50;99.90;;;;;;5054760;28;20017;-70
2023/08/20 00:05:29;;;;;;;23.83;13.02;;;21.50;99.90;;;;;;5055870;28;20064;-70
2023/08/20 00:07:54;;;;;;;23.30;13.73;;;21.40;99.90;;;;;;5056171;28;20350;-69
2023/08/20 00:10:20;;;;;;;23.02;13.43;;;21.30;99.90;;;;;;5055752;28;20035;-70
2023/08/20 00:12:45;;;;;;;19.95;12.30;;;21.30;99.90;;;;;;5055663;28;20047;-69
2023/08/20 00:15:11;;;;;;;23.67;13.30;;;21.20;99.90;;;;;;5055603;28;20346;-69
2023/08/20 00:17:39;;;;;;;25.45;13.38;;;21.10;99.90;;;;;;5055445;28;20039;-69
2023/08/20 00:20:10;;;;;;;23.77;13.52;;;21.10;99.90;;;;;;5055565;28;20039;-70
2023/08/20 00:22:36;;;;;;;24.98;13.52;;;21.10;99.90;;;;;;5055540;28;20029;-70
2023/08/20 00:25:03;;;;;;;25.95;13.98;;;21.10;99.90;;;;;;5055435;28;20028;-69
2023/08/20 00:27:29;;;;;;;21.08;13.25;;;21.10;99.90;;;;;;5055489;28;20064;-70
2023/08/20 00:29:55;;;;;;;20.60;13.88;;;21.10;99.90;;;;;;5055646;28;20053;-70
2023/08/20 00:32:20;;;;;;;21.10;14.02;;;21.20;99.90;;;;;;5055356;28;20071;-70
2023/08/20 00:34:46;;;;;;;28.27;14.80;;;21.10;99.90;;;;;;5055019;28;20584;-69
2023/08/20 00:37:12;;;;;;;23.23;14.05;;;20.90;99.90;;;;;;5056032;28;20354;-70
2023/08/20 00:39:38;;;;;;;21.75;13.18;;;20.90;99.90;;;;;;5055483;28;20025;-70
2023/08/20 00:42:04;;;;;;;21.25;13.20;;;20.90;99.90;;;;;;5055483;28;20067;-70
2023/08/20 00:44:30;;;;;;;24.88;13.00;;;20.80;99.90;;;;;;5055081;28;20017;-70
2023/08/20 00:46:56;;;;;;;28.00;14.05;;;20.70;99.90;;;;;;5055129;28;20120;-70
2023/08/20 00:49:22;;;;;;;24.60;13.98;;;20.60;99.90;;;;;;5054548;28;20083;-69
2023/08/20 00:51:50;;;;;;;27.77;13.95;;;20.60;99.90;;;;;;5054964;28;20338;-70
2023/08/20 00:54:16;;;;;;;20.98;13.70;;;20.60;99.90;;;;;;5055474;28;20032;-70
2023/08/20 00:56:42;;;;;;;22.23;12.63;;;20.60;99.90;;;;;;5054771;28;20119;-70
2023/08/20 00:59:08;;;;;;;22.60;13.93;;;20.50;99.90;;;;;;5054849;28;20052;-70
2023/08/20 01:01:34;;;;;;;21.77;13.38;;;20.50;99.90;;;;;;5054795;28;20049;-70
2023/08/20 01:04:00;;;;;;;23.58;13.85;;;20.50;99.90;;;;;;5054434;28;20441;-70
2023/08/20 01:06:51;;;;;;;22.88;13.07;;;20.50;99.90;;;;;;5054812;28;20124;-70
2023/08/20 01:09:42;;;;;;;22.23;13.60;;;20.50;99.90;;;;;;5054602;28;20036;-69
2023/08/20 01:12:09;;;;;;;24.90;13.95;;;20.50;99.90;;;;;;5054094;28;20347;-70
2023/08/20 01:14:35;;;;;;;20.52;13.93;;;20.50;99.90;;;;;;5053577;28;20052;-69
2023/08/20 01:17:01;;;;;;;21.95;13.85;;;20.50;99.90;;;;;;5054463;28;20343;-70
2023/08/20 01:19:27;;;;;;;24.10;13.18;;;20.50;99.90;;;;;;5054095;28;20378;-69
2023/08/20 01:22:19;;;;;;;21.25;12.40;;;20.40;99.90;;;;;;5054347;28;20442;-70
2023/08/20 01:24:56;;;;;;;23.42;12.80;;;20.40;99.90;;;;;;5054378;28;20096;-70
2023/08/20 01:27:52;;;;;;;20.02;12.57;;;20.40;99.90;;;;;;5054161;28;20477;-70
2023/08/20 01:30:20;;;;;;;19.15;12.43;;;20.40;99.90;;;;;;5054310;28;20357;-70
2023/08/20 01:32:47;;;;;;;20.40;12.25;;;20.50;99.90;;;;;;5054191;28;20021;-70
2023/08/20 01:35:13;;;;;;;16.88;11.98;;;20.50;99.90;;;;;;5053833;28;20368;-70
2023/08/20 01:37:39;;;;;;;24.60;12.15;;;20.60;99.90;;;;;;5053975;28;20072;-70
2023/08/20 01:40:08;;;;;;;26.70;13.57;;;20.50;99.90;;;;;;5054041;28;20075;-70
2023/08/20 01:42:33;;;;;;;23.50;12.68;;;20.50;99.90;;;;;;5053975;28;20052;-70
2023/08/20 01:44:59;;;;;;;22.15;13.30;;;20.40;99.90;;;;;;5053953;28;20441;-69
2023/08/20 01:47:24;;;;;;;34.05;14.25;;;20.40;99.90;;;;;;5053705;28;20028;-70
2023/08/20 01:49:50;;;;;;;27.42;12.48;;;20.40;99.90;;;;;;5053938;28;20045;-70
2023/08/20 01:52:16;;;;;;;21.38;12.52;;;20.30;99.90;;;;;;5053763;28;20021;-69
2023/08/20 01:54:41;;;;;;;18.85;12.73;;;20.20;99.90;;;;;;5053860;28;20469;-70
2023/08/20 01:57:07;;;;;;;23.80;13.40;;;20.20;99.90;;;;;;5054229;28;20116;-70
2023/08/20 01:59:33;;;;;;;21.38;13.35;;;20.20;99.90;;;;;;5053791;28;20401;-70
2023/08/20 02:01:58;;;;;;;22.25;14.10;;;20.20;99.90;;;;;;5054028;28;20057;-70
2023/08/20 02:04:24;;;;;;;24.23;13.40;;;20.20;99.90;;;;;;5053623;28;20199;-69
2023/08/20 02:06:49;;;;;;;21.42;13.57;;;20.20;99.90;;;;;;5053236;28;20032;-70
2023/08/20 02:09:16;;;;;;;23.27;14.05;;;20.20;99.90;;;;;;5054077;28;20071;-69
2023/08/20 02:11:42;;;;;;;23.33;13.23;;;20.20;99.90;;;;;;5053547;28;20079;-70
2023/08/20 02:14:07;;;;;;;25.77;13.85;;;20.20;99.90;;;;;;5053464;28;20017;-70
2023/08/20 02:16:33;;;;;;;21.38;14.05;;;20.20;99.90;;;;;;5053824;28;20029;-70
2023/08/20 02:18:59;;;;;;;24.48;14.32;;;20.20;99.90;;;;;;5054337;28;20025;-70
2023/08/20 02:21:24;;;;;;;21.25;13.15;;;20.00;99.90;;;;;;5054306;28;20040;-70
2023/08/20 02:23:50;;;;;;;19.55;13.20;;;20.00;99.90;;;;;;5054459;28;20028;-69
2023/08/20 02:26:16;;;;;;;22.25;13.02;;;19.90;99.90;;;;;;5054801;28;20347;-70
2023/08/20 02:28:41;;;;;;;22.70;14.18;;;19.90;99.90;;;;;;5053357;28;20059;-70
2023/08/20 02:31:07;;;;;;;21.63;13.35;;;19.90;99.90;;;;;;5053692;28;20021;-70
2023/08/20 02:33:32;;;;;;;25.77;13.05;;;19.90;99.90;;;;;;5053681;28;20075;-71
2023/08/20 02:36:03;;;;;;;23.35;14.38;;;20.00;99.90;;;;;;5053398;28;20033;-70
2023/08/20 02:38:29;;;;;;;30.00;14.40;;;20.00;99.90;;;;;;5052995;28;20549;-70
2023/08/20 02:40:54;;;;;;;21.95;13.20;;;20.00;99.90;;;;;;5053220;28;20060;-71
2023/08/20 02:43:20;;;;;;;21.08;13.70;;;20.00;99.90;;;;;;5053228;28;20150;-70
2023/08/20 02:45:45;;;;;;;24.05;13.52;;;20.00;99.90;;;;;;5053230;28;20020;-70
2023/08/20 02:48:12;;;;;;;20.45;12.45;;;19.90;99.90;;;;;;5052914;28;20082;-69
2023/08/20 02:50:38;;;;;;;24.92;12.32;;;19.90;99.90;;;;;;5054122;28;20048;-70
2023/08/20 02:53:03;;;;;;;27.02;12.50;;;19.90;99.90;;;;;;5053389;28;20028;-70
2023/08/20 02:55:30;;;;;;;18.42;12.52;;;19.90;99.90;;;;;;5053369;28;20021;-70
2023/08/20 02:57:56;;;;;;;18.27;13.05;;;19.90;99.90;;;;;;5052845;28;20079;-69
2023/08/20 03:00:21;;;;;;;27.92;13.52;;;19.90;99.90;;;;;;5053074;28;20021;-70
2023/08/20 03:02:47;;;;;;;22.52;12.82;;;19.90;99.90;;;;;;5053032;28;20449;-69
2023/08/20 03:05:14;;;;;;;19.17;12.02;;;20.00;99.90;;;;;;5053179;28;20028;-69
2023/08/20 03:07:39;;;;;;;21.60;13.30;;;19.90;99.90;;;;;;5052904;28;20036;-70
2023/08/20 03:10:06;;;;;;;21.95;12.35;;;19.80;99.90;;;;;;5052658;28;20021;-70
2023/08/20 03:12:32;;;;;;;19.83;12.32;;;19.80;99.90;;;;;;5053015;28;20021;-70
2023/08/20 03:14:58;;;;;;;19.33;12.63;;;19.80;99.90;;;;;;5052936;28;20433;-70
2023/08/20 03:17:24;;;;;;;20.00;12.60;;;19.70;99.90;;;;;;5053046;28;20070;-70
2023/08/20 03:19:57;;;;;;;23.95;12.55;;;19.70;99.90;;;;;;5053147;28;20033;-70
2023/08/20 03:22:24;;;;;;;19.50;12.65;;;19.70;99.90;;;;;;5053166;28;20051;-70
2023/08/20 03:24:50;;;;;;;20.98;13.52;;;19.80;99.90;;;;;;5052891;28;20355;-70
2023/08/20 03:27:16;;;;;;;21.65;13.98;;;19.80;99.90;;;;;;5052790;28;20032;-70
2023/08/20 03:29:42;;;;;;;21.52;13.20;;;19.80;99.90;;;;;;5052851;28;20029;-70
2023/08/20 03:32:08;;;;;;;21.52;13.80;;;19.90;99.90;;;;;;5052846;28;20078;-69
2023/08/20 03:34:33;;;;;;;20.92;13.10;;;19.80;99.90;;;;;;5053115;28;20104;-69
2023/08/20 03:36:59;;;;;;;21.23;12.73;;;19.70;99.90;;;;;;5055355;28;20059;-70
2023/08/20 03:39:25;;;;;;;22.10;12.30;;;19.60;99.90;;;;;;5056580;28;20017;-69
2023/08/20 03:41:51;;;;;;;19.38;12.40;;;19.50;99.90;;;;;;5056295;28;20024;-70
2023/08/20 03:44:17;;;;;;;21.13;12.80;;;19.50;99.90;;;;;;5056528;28;20082;-70
2023/08/20 03:46:43;;;;;;;21.33;12.93;;;19.50;99.90;;;;;;5056413;28;20108;-69
2023/08/20 03:49:08;;;;;;;16.88;11.60;;;19.40;99.90;;;;;;5056001;28;20053;-70
2023/08/20 03:51:34;;;;;;;22.25;12.52;;;19.40;99.90;;;;;;5056020;28;20025;-69
2023/08/20 03:53:59;;;;;;;18.27;12.25;;;19.40;99.90;;;;;;5056091;28;20021;-70
2023/08/20 03:56:25;;;;;;;24.83;12.27;;;19.40;99.90;;;;;;5056059;28;20053;-70
2023/08/20 03:58:52;;;;;;;22.38;12.10;;;19.30;99.90;;;;;;5056221;28;20021;-70
2023/08/20 04:01:18;;;;;;;21.75;12.65;;;19.30;99.90;;;;;;5055698;28;20424;-70
2023/08/20 04:03:46;;;;;;;18.75;11.80;;;19.30;99.90;;;;;;5055840;28;20025;-69
2023/08/20 04:06:11;;;;;;;20.67;12.77;;;19.20;99.90;;;;;;5055709;28;20067;-70
2023/08/20 04:08:37;;;;;;;19.88;13.23;;;19.20;99.90;;;;;;5055766;28;20028;-70
2023/08/20 04:11:03;;;;;;;20.50;13.05;;;19.20;99.90;;;;;;5055724;28;20457;-69
2023/08/20 04:13:29;;;;;;;19.50;12.43;;;19.20;99.90;;;;;;5055626;28;20051;-69
2023/08/20 04:15:55;;;;;;;21.25;13.55;;;19.20;99.90;;;;;;5055652;28;20053;-70
2023/08/20 04:18:22;;;;;;;21.45;13.80;;;19.20;99.90;;;;;;5055335;28;20492;-70
2023/08/20 04:20:51;;;;;;;22.55;14.02;;;19.20;99.90;;;;;;5056068;28;20442;-69
2023/08/20 04:23:16;;;;;;;21.20;13.80;;;19.10;99.90;;;;;;5055456;28;20095;-69
2023/08/20 04:25:42;;;;;;;25.98;14.88;;;19.10;99.90;;;;;;5055700;28;20337;-70
2023/08/20 04:28:08;;;;;;;22.27;14.50;;;19.10;99.90;;;;;;5055652;28;20029;-70
2023/08/20 04:30:35;;;;;;;20.33;13.68;;;19.10;99.90;;;;;;5055639;28;20017;-70
2023/08/20 04:33:01;;;;;;;24.67;14.50;;;19.00;99.90;;;;;;5055794;28;20460;-69
2023/08/20 04:35:26;;;;;;;20.80;13.20;;;19.00;99.90;;;;;;5055305;28;20096;-70
2023/08/20 04:37:52;;;;;;;21.63;13.68;;;18.90;99.90;;;;;;5055161;28;20024;-70
2023/08/20 04:40:17;;;;;;;20.20;13.55;;;18.90;99.90;;;;;;5055200;28;20449;-70
2023/08/20 04:42:43;;;;;;;20.50;13.18;;;18.90;99.90;;;;;;5055892;28;20342;-70
2023/08/20 04:45:10;;;;;;;25.73;13.38;;;18.80;99.90;;;;;;5055369;28;20028;-70
2023/08/20 04:47:36;;;;;;;22.10;13.40;;;18.90;99.90;;;;;;5054197;28;20128;-70
2023/08/20 04:50:02;;;;;;;19.45;13.27;;;18.90;99.90;;;;;;5055254;28;20076;-70
2023/08/20 04:52:27;;;;;;;22.00;13.23;;;18.90;99.90;;;;;;5054920;28;20357;-70
2023/08/20 04:54:53;;;;;;;19.27;12.23;;;19.00;99.90;;;;;;5054916;28;20068;-69
2023/08/20 04:57:19;;;;;;;20.13;13.52;;;19.00;99.90;;;;;;5054850;28;20035;-70
2023/08/20 04:59:45;;;;;;;18.00;12.38;;;19.00;99.90;;;;;;5055076;28;20020;-70
2023/08/20 05:02:13;;;;;;;25.95;14.35;;;19.10;99.90;;;;;;5054793;28;20025;-70
2023/08/20 05:04:40;;;;;;;22.08;13.95;;;19.10;99.90;;;;;;5054728;28;20112;-70
2023/08/20 05:07:05;;;;;;;23.13;12.88;;;19.20;99.90;;;;;;5055099;28;20468;-70
2023/08/20 05:09:32;;;;;;;18.23;12.05;;;19.20;99.90;;;;;;5055216;28;20096;-70
2023/08/20 05:11:58;;;;;;;25.60;13.40;;;19.20;99.90;;;;;;5054865;28;20029;-70
2023/08/20 05:14:24;;;;;;;22.55;12.48;;;19.20;99.90;;;;;;5054576;28;20029;-70
2023/08/20 05:16:49;;;;;;;23.58;12.38;;;19.30;99.90;;;;;;5054509;28;20104;-69
2023/08/20 05:19:15;;;;;;;21.35;12.98;;;19.40;99.90;;;;;;5054436;28;20060;-69
2023/08/20 05:21:40;;;;;;;19.33;12.07;;;19.50;99.90;;;;;;5054461;28;20036;-70
2023/08/20 05:24:06;;;;;;;21.20;12.77;;;19.60;99.90;;;;;;5054390;28;20059;-69
2023/08/20 05:26:32;;;;;;;22.55;12.50;;;19.60;99.90;;;;;;5054571;28;20032;-69
2023/08/20 05:28:57;;;;;;;22.70;12.95;;;19.70;99.90;;;;;;5054584;28;20098;-70
2023/08/20 05:31:23;;;;;;;28.52;13.75;;;19.80;99.90;;;;;;5054529;28;20446;-69
2023/08/20 05:33:48;;;;;;;21.17;13.82;;;20.00;99.90;;;;;;5054567;28;20025;-69
2023/08/20 05:36:14;;;;;;;23.73;13.02;;;20.10;99.90;;;;;;5054203;28;20032;-69
2023/08/20 05:38:42;;;;;;;18.95;12.35;;;20.20;99.90;;;;;;5054155;28;20357;-69
2023/08/20 05:41:08;;;;;;;22.58;11.63;;;20.30;99.90;;;;;;5054264;28;20036;-69
2023/08/20 05:43:36;;;;;;;19.15;11.60;;;20.30;99.90;;;;;;5054010;28;20104;-69
2023/08/20 05:46:02;;;;;;;19.60;10.98;;;20.30;99.90;;;;;;5054019;28;20025;-69
2023/08/20 05:48:28;;;;;;;16.92;11.35;;;20.40;99.90;;;;;;5053477;28;20036;-69
2023/08/20 05:50:54;;;;;;;18.08;12.00;;;20.50;99.90;;;;;;5054074;28;20028;-69
2023/08/20 05:53:19;;;;;;;22.95;11.30;;;20.60;99.90;;;;;;5053631;28;20025;-69
2023/08/20 05:55:45;;;;;;;19.50;12.10;;;20.70;99.90;;;;;;5053905;28;20021;-69
2023/08/20 05:58:11;;;;;;;19.50;11.82;;;20.60;99.90;;;;;;5054118;28;20060;-69
2023/08/20 06:00:37;;;;;;;21.52;12.50;;;20.60;99.90;;;;;;5053378;28;20438;-69
2023/08/20 06:03:03;;;;;;;17.40;11.68;;;20.60;99.90;;;;;;5053425;28;20016;-70
2023/08/20 06:05:28;;;;;;;18.55;11.90;;;20.50;99.90;;;;;;5053974;28;20025;-69
2023/08/20 06:07:54;;;;;;;19.27;12.50;;;20.50;99.90;;;;;;5053561;28;20029;-69
2023/08/20 06:10:20;;;;;;;23.13;13.35;;;20.60;99.90;;;;;;5053685;28;20031;-69
2023/08/20 06:12:45;;;;;;;21.98;13.25;;;20.60;99.90;;;;;;5053897;28;20090;-69
2023/08/20 06:15:11;;;;;;;20.75;12.75;;;20.70;99.90;;;;;;5053611;28;20499;-69
2023/08/20 06:17:36;;;;;;;25.45;14.65;;;20.80;99.90;;;;;;5053192;28;20025;-69
2023/08/20 06:20:08;;;;;;;19.98;13.38;;;20.80;99.90;;;;;;5053264;28;20104;-69
2023/08/20 06:22:34;;;;;;;19.35;12.27;;;20.90;99.90;;;;;;5054066;28;20029;-69
2023/08/20 06:25:00;;;;;;;20.58;13.13;;;21.00;99.90;;;;;;5053738;28;20419;-69
2023/08/20 06:27:26;;;;;;;19.65;13.00;;;21.10;99.90;;;;;;5053890;28;20032;-69
2023/08/20 06:29:52;;;;;;;19.20;12.68;;;21.10;99.90;;;;;;5053038;28;20025;-69
2023/08/20 06:32:17;;;;;;;19.90;12.98;;;21.10;99.90;;;;;;5053780;28;20032;-69
2023/08/20 06:34:43;;;;;;;22.63;13.45;;;21.20;99.90;;;;;;5053146;28;20032;-69
2023/08/20 06:37:08;;;;;;;26.30;15.23;;;21.30;99.90;;;;;;5053015;28;20025;-69
2023/08/20 06:39:34;;;;;;;21.75;15.32;;;21.40;99.90;;;;;;5053051;28;20021;-69
2023/08/20 06:42:00;;;;;;;28.70;16.55;;;21.50;99.90;;;;;;5053275;28;20065;-69
2023/08/20 06:44:26;;;;;;;30.02;16.90;;;21.50;99.90;;;;;;5053283;28;20021;-69
2023/08/20 06:46:51;;;;;;;23.20;16.77;;;21.70;99.90;;;;;;5053471;28;20466;-69
2023/08/20 06:49:17;;;;;;;30.45;18.23;;;21.90;99.90;;;;;;5053078;28;20128;-70
2023/08/20 06:51:43;;;;;;;28.88;18.38;;;22.10;99.90;;;;;;5053267;28;20033;-69
2023/08/20 06:54:09;;;;;;;31.65;18.33;;;22.20;99.90;;;;;;5053277;28;20036;-69
2023/08/20 06:56:35;;;;;;;26.38;18.13;;;22.30;99.90;;;;;;5053132;28;20033;-70
2023/08/20 06:59:03;;;;;;;30.58;19.02;;;22.50;99.90;;;;;;5053443;28;20028;-69
2023/08/20 07:01:28;;;;;;;30.75;18.63;;;22.70;99.90;;;;;;5053102;28;20032;-69
2023/08/20 07:03:54;;;;;;;32.60;19.70;;;22.90;99.90;;;;;;5053113;28;20357;-68
2023/08/20 07:06:20;;;;;;;31.20;18.65;;;23.00;99.90;;;;;;5053512;28;20052;-69
2023/08/20 07:08:46;;;;;;;29.92;19.02;;;23.10;99.90;;;;;;5053337;28;20464;-70
2023/08/20 07:11:11;;;;;;;33.97;19.98;;;23.30;99.90;;;;;;5054799;28;20029;-69
2023/08/20 07:13:37;;;;;;;38.40;19.92;;;23.40;99.90;;;;;;5056903;28;20442;-69
2023/08/20 07:16:03;;;;;;;31.38;20.00;;;23.40;99.90;;;;;;5057313;28;20029;-69
2023/08/20 07:18:29;;;;;;;30.48;19.85;;;23.40;99.90;;;;;;5056619;28;20119;-69
2023/08/20 07:20:55;;;;;;;28.17;20.05;;;23.40;99.90;;;;;;5056806;28;20458;-69
2023/08/20 07:23:21;;;;;;;28.00;19.35;;;23.50;99.90;;;;;;5056435;28;20412;-69
2023/08/20 07:25:48;;;;;;;31.50;19.08;;;23.60;99.90;;;;;;5056306;28;20021;-68
2023/08/20 07:28:14;;;;;;;32.75;18.73;;;23.80;99.90;;;;;;5056439;28;20032;-69
2023/08/20 07:30:40;;;;;;;28.23;18.77;;;23.90;99.90;;;;;;5056537;28;20028;-69
2023/08/20 07:33:07;;;;;;;29.08;18.65;;;24.00;99.90;;;;;;5056209;28;20021;-70
2023/08/20 07:35:33;;;;;;;30.38;19.40;;;24.20;99.90;;;;;;5056908;28;20029;-70
2023/08/20 07:37:59;;;;;;;29.27;19.73;;;24.20;99.90;;;;;;5057192;28;20116;-69
2023/08/20 07:40:24;;;;;;;33.53;20.25;;;24.30;99.90;;;;;;5056669;28;20056;-69
2023/08/20 07:42:50;;;;;;;30.70;20.08;;;24.30;99.90;;;;;;5056332;28;20410;-69
2023/08/20 07:45:16;;;;;;;29.90;20.58;;;24.30;99.90;;;;;;5056320;28;20368;-69
2023/08/20 07:47:42;;;;;;;36.15;20.05;;;24.30;99.90;;;;;;5055784;28;20041;-69
2023/08/20 07:50:08;;;;;;;28.52;18.60;;;24.30;99.90;;;;;;5056194;28;20056;-69
2023/08/20 07:52:34;;;;;;;29.02;18.70;;;24.40;99.90;;;;;;5056159;28;20433;-69
2023/08/20 07:55:00;;;;;;;31.92;18.30;;;24.50;99.90;;;;;;5056006;28;20021;-69
2023/08/20 07:57:25;;;;;;;31.52;18.15;;;24.60;99.90;;;;;;5056006;28;20364;-69
2023/08/20 07:59:52;;;;;;;28.75;18.73;;;24.70;99.90;;;;;;5055964;28;20473;-70
2023/08/20 08:02:18;;;;;;;28.00;18.40;;;24.90;99.90;;;;;;5056123;28;20434;-69
2023/08/20 08:04:43;;;;;;;30.95;17.90;;;25.00;99.90;;;;;;5055583;28;20028;-69
2023/08/20 08:07:11;;;;;;;23.40;16.52;;;25.10;99.90;;;;;;5056035;28;20385;-70
2023/08/20 08:09:36;;;;;;;26.55;17.25;;;25.20;99.90;;;;;;5055783;28;20017;-70
2023/08/20 08:12:03;;;;;;;28.77;17.83;;;25.40;99.90;;;;;;5054458;28;20082;-69
2023/08/20 08:14:28;;;;;;;29.13;17.48;;;25.50;99.90;;;;;;5056005;28;20036;-69
2023/08/20 08:16:54;;;;;;;27.48;17.35;;;25.60;99.90;;;;;;5055393;28;20393;-70
2023/08/20 08:19:20;;;;;;;29.17;17.83;;;25.60;99.90;;;;;;5055242;28;20025;-69
2023/08/20 08:21:46;;;;;;;28.58;18.05;;;25.70;99.90;;;;;;5055116;28;20036;-69
2023/08/20 08:24:13;;;;;;;29.42;16.58;;;25.80;99.90;;;;;;5054850;28;20024;-70
2023/08/20 08:26:39;;;;;;;29.92;17.38;;;25.80;99.90;;;;;;5055483;28;20116;-69
2023/08/20 08:29:06;;;;;;;24.33;16.60;;;25.90;99.90;;;;;;5055426;28;20029;-69
2023/08/20 08:31:32;;;;;;;28.33;16.90;;;26.00;99.90;;;;;;5055347;28;20025;-69
2023/08/20 08:33:57;;;;;;;38.67;17.42;;;26.20;99.90;;;;;;5055363;28;20017;-69
2023/08/20 08:36:24;;;;;;;26.95;17.13;;;26.30;99.90;;;;;;5055225;28;20028;-69
2023/08/20 08:38:51;;;;;;;25.40;16.80;;;26.30;99.90;;;;;;5055176;28;20052;-69
2023/08/20 08:41:18;;;;;;;22.55;15.30;;;26.40;99.90;;;;;;5055653;28;20092;-69
2023/08/20 08:43:43;;;;;;;22.77;15.32;;;26.40;99.90;;;;;;5055142;28;20357;-69
2023/08/20 08:46:16;;;;;;;22.50;15.23;;;26.50;99.90;;;;;;5054870;28;20029;-69
2023/08/20 08:48:46;;;;;;;24.77;14.65;;;26.60;99.90;;;;;;5054860;28;20128;-69
2023/08/20 08:51:12;;;;;;;27.08;15.80;;;26.60;99.90;;;;;;5055030;28;20078;-69
2023/08/20 08:53:38;;;;;;;25.65;14.98;;;26.80;99.90;;;;;;5055049;28;20040;-70
2023/08/20 08:56:05;;;;;;;24.48;14.88;;;26.90;99.90;;;;;;5055192;28;20024;-70
2023/08/20 08:58:32;;;;;;;21.20;13.85;;;27.10;99.90;;;;;;5054939;28;20025;-69
2023/08/20 09:00:58;;;;;;;18.60;13.73;;;27.30;99.90;;;;;;5055060;28;20043;-71
2023/08/20 09:03:24;;;;;;;22.83;13.68;;;27.40;99.90;;;;;;5055334;28;20025;-69
2023/08/20 09:06:07;;;;;;;18.25;12.95;;;27.60;99.90;;;;;;5055369;28;20025;-69
2023/08/20 09:08:33;;;;;;;22.98;14.25;;;27.80;99.90;;;;;;5054704;28;20427;-69
2023/08/20 09:11:01;;;;;;;26.90;14.32;;;27.90;99.90;;;;;;5054628;28;20205;-69
2023/08/20 09:13:37;;;;;;;20.83;13.52;;;27.90;99.90;;;;;;5054904;28;20025;-69
2023/08/20 09:16:06;;;;;;;21.33;13.18;;;28.10;99.90;;;;;;5055238;28;20369;-69
2023/08/20 09:18:37;;;;;;;23.27;13.27;;;28.10;99.90;;;;;;5054229;28;20025;-69
2023/08/20 09:21:07;;;;;;;19.60;13.18;;;28.10;99.90;;;;;;5054562;28;20445;-69
2023/08/20 09:23:32;;;;;;;24.23;12.25;;;28.20;99.90;;;;;;5054436;28;20071;-70
2023/08/20 09:26:02;;;;;;;20.45;12.35;;;28.40;99.90;;;;;;5054725;28;20037;-69
2023/08/20 09:28:27;;;;;;;18.00;11.75;;;28.60;99.90;;;;;;5054945;28;20029;-70
2023/08/20 09:30:58;;;;;;;16.67;11.43;;;28.80;99.90;;;;;;5054680;28;20138;-70
2023/08/20 09:33:24;;;;;;;24.30;11.45;;;28.80;99.90;;;;;;5054041;28;20025;-70
2023/08/20 09:35:50;;;;;;;20.48;11.02;;;28.90;99.90;;;;;;5054817;28;20036;-70
2023/08/20 09:38:21;;;;;;;17.83;12.50;;;29.10;99.90;;;;;;5055073;28;20029;-70
2023/08/20 09:40:52;;;;;;;19.48;12.00;;;29.20;99.90;;;;;;5054507;28;20025;-70
2023/08/20 09:43:19;;;;;;;19.48;11.45;;;29.20;99.90;;;;;;5054170;28;20032;-68
2023/08/20 09:45:47;;;;;;;16.70;11.05;;;29.00;99.90;;;;;;5054334;28;20017;-68
2023/08/20 09:48:19;;;;;;;20.38;10.93;;;29.10;99.90;;;;;;5053718;28;20076;-68
2023/08/20 09:50:47;;;;;;;19.20;11.35;;;29.30;99.90;;;;;;5053937;28;20080;-68
2023/08/20 09:53:27;;;;;;;17.08;11.18;;;29.50;99.90;;;;;;5053909;28;20441;-68
2023/08/20 09:55:55;;;;;;;15.73;11.43;;;29.30;99.90;;;;;;5053919;28;20067;-68
2023/08/20 09:58:25;;;;;;;25.55;11.80;;;29.30;99.90;;;;;;5053843;28;20096;-69
2023/08/20 10:00:51;;;;;;;19.83;11.82;;;29.20;99.90;;;;;;5053789;28;20021;-68
2023/08/20 10:03:20;;;;;;;16.95;11.30;;;29.30;99.90;;;;;;5053625;28;20017;-68
2023/08/20 10:05:50;;;;;;;15.10;11.13;;;29.20;99.90;;;;;;5054136;28;20048;-67
2023/08/20 10:08:16;;;;;;;22.55;11.15;;;29.50;99.90;;;;;;5054151;28;20029;-68
2023/08/20 10:10:42;;;;;;;16.60;11.00;;;29.70;99.90;;;;;;5053559;28;20401;-68
2023/08/20 10:13:08;;;;;;;21.65;11.77;;;29.90;99.90;;;;;;5053764;28;20025;-68
2023/08/20 10:15:36;;;;;;;19.45;11.85;;;30.10;99.90;;;;;;5054162;28;20047;-67
2023/08/20 10:18:02;;;;;;;17.17;11.90;;;30.00;99.90;;;;;;5053209;28;20075;-68
2023/08/20 10:20:32;;;;;;;21.48;12.05;;;29.90;99.90;;;;;;5053634;28;20029;-68
2023/08/20 10:23:02;;;;;;;19.15;11.95;;;30.00;99.90;;;;;;5053458;28;20090;-68
2023/08/20 10:25:29;;;;;;;20.25;11.80;;;29.90;99.90;;;;;;5053645;28;20040;-69
2023/08/20 10:28:10;;;;;;;19.05;12.40;;;29.70;99.90;;;;;;5052955;28;20100;-68
2023/08/20 10:30:36;;;;;;;17.63;11.52;;;29.60;99.90;;;;;;5054207;28;20041;-69
2023/08/20 10:33:03;;;;;;;16.63;10.45;;;29.90;99.90;;;;;;5053245;28;20089;-68
2023/08/20 10:35:38;;;;;;;24.02;11.30;;;30.10;99.90;;;;;;5053562;28;20032;-68
2023/08/20 10:38:04;;;;;;;17.77;11.68;;;30.30;99.90;;;;;;5053666;28;20028;-68
2023/08/20 10:40:49;;;;;;;21.10;12.00;;;30.60;99.90;;;;;;5052815;28;20017;-68
2023/08/20 10:43:33;;;;;;;15.65;11.60;;;30.80;99.90;;;;;;5053389;28;20021;-68
2023/08/20 10:46:14;;;;;;;22.17;12.18;;;30.60;99.90;;;;;;5054418;28;20029;-68
2023/08/20 10:48:41;;;;;;;20.05;11.88;;;30.60;99.90;;;;;;5056756;28;20056;-68
2023/08/20 10:51:11;;;;;;;21.20;11.68;;;30.40;99.90;;;;;;5057480;28;20128;-68
2023/08/20 10:53:37;;;;;;;25.17;12.35;;;30.30;99.90;;;;;;5057670;28;20074;-68
2023/08/20 10:56:14;;;;;;;26.13;11.88;;;30.30;99.90;;;;;;5056947;28;20021;-68
2023/08/20 10:58:47;;;;;;;20.80;12.30;;;30.30;99.90;;;;;;5058086;28;20029;-68
2023/08/20 11:01:21;;;;;;;21.85;11.60;;;30.40;99.90;;;;;;5056900;28;20465;-68
2023/08/20 11:03:50;;;;;;;15.30;11.32;;;30.70;99.90;;;;;;5057006;28;20127;-68
2023/08/20 11:06:18;;;;;;;16.67;12.05;;;31.20;99.90;;;;;;5056959;28;20029;-68
2023/08/20 11:08:44;;;;;;;16.08;11.30;;;31.60;99.90;;;;;;5056750;28;20152;-68
2023/08/20 11:11:11;;;;;;;18.65;11.93;;;31.50;99.90;;;;;;5056854;28;20035;-67
2023/08/20 11:13:37;;;;;;;20.15;11.15;;;31.30;99.90;;;;;;5056928;28;20025;-67
2023/08/20 11:16:04;;;;;;;16.13;11.60;;;31.20;99.90;;;;;;5056989;28;20128;-67
2023/08/20 11:18:32;;;;;;;22.23;12.20;;;30.90;99.90;;;;;;5057088;28;20024;-68
2023/08/20 11:20:58;;;;;;;24.73;11.65;;;30.90;99.90;;;;;;5056682;28;20029;-68
2023/08/20 11:23:24;;;;;;;28.92;12.13;;;30.70;99.90;;;;;;5056825;28;20540;-67
2023/08/20 11:25:50;;;;;;;20.23;11.60;;;30.70;99.90;;;;;;5057030;28;20025;-67
2023/08/20 11:28:16;;;;;;;21.67;12.10;;;30.70;99.90;;;;;;5056446;28;20064;-68
2023/08/20 11:30:42;;;;;;;16.58;11.85;;;30.60;99.90;;;;;;5056460;28;20108;-68
2023/08/20 11:33:08;;;;;;;17.23;12.55;;;30.60;99.90;;;;;;5056217;28;20028;-67
2023/08/20 11:35:35;;;;;;;18.73;12.65;;;30.60;99.90;;;;;;5056073;28;20404;-68
2023/08/20 11:38:02;;;;;;;17.10;11.80;;;30.80;99.90;;;;;;5056554;28;20442;-68
2023/08/20 11:40:28;;;;;;;19.83;12.02;;;31.10;99.90;;;;;;5056347;28;20028;-68
2023/08/20 11:42:54;;;;;;;15.65;10.85;;;31.30;99.90;;;;;;5055181;28;20112;-68
2023/08/20 11:45:19;;;;;;;15.88;12.43;;;31.70;99.90;;;;;;5056233;28;20094;-68
2023/08/20 11:47:45;;;;;;;18.95;11.90;;;32.10;99.90;;;;;;5055883;28;20086;-68
2023/08/20 11:50:11;;;;;;;20.92;12.07;;;32.50;99.90;;;;;;5055852;28;20084;-68
2023/08/20 11:52:39;;;;;;;17.85;11.55;;;32.70;99.90;;;;;;5055880;28;20362;-68
2023/08/20 11:55:06;;;;;;;15.00;11.40;;;32.60;99.90;;;;;;5056022;28;20381;-68
2023/08/20 11:57:32;;;;;;;16.35;10.73;;;33.00;99.90;;;;;;5055915;28;20450;-68
2023/08/20 12:00:12;;;;;;;17.17;10.82;;;33.00;99.90;;;;;;5056324;28;20078;-68
2023/08/20 12:02:41;;;;;;;16.25;11.82;;;33.20;99.90;;;;;;5056477;28;20028;-68
2023/08/20 12:05:07;;;;;;;22.90;11.45;;;33.10;99.90;;;;;;5055511;28;20477;-67
2023/08/20 12:07:33;;;;;;;20.25;12.43;;;33.10;99.90;;;;;;5055605;28;20033;-68
2023/08/20 12:10:18;;;;;;;19.70;11.70;;;33.10;99.90;;;;;;5056260;28;20059;-68
2023/08/20 12:12:45;;;;;;;19.00;12.23;;;33.10;99.90;;;;;;5055789;28;20446;-67
2023/08/20 12:15:10;;;;;;;19.52;12.05;;;33.10;99.90;;;;;;5055714;28;20021;-69
2023/08/20 12:17:36;;;;;;;18.75;11.73;;;33.10;99.90;;;;;;5055628;28;20112;-68
2023/08/20 12:20:09;;;;;;;23.17;11.32;;;33.20;99.90;;;;;;5055656;28;20078;-67
2023/08/20 12:22:35;;;;;;;18.65;12.20;;;33.20;99.90;;;;;;5056087;28;20059;-68
2023/08/20 12:25:01;;;;;;;19.40;11.70;;;33.10;99.90;;;;;;5055759;28;20049;-69
2023/08/20 12:27:27;;;;;;;20.48;12.15;;;32.90;99.90;;;;;;5055772;28;20043;-68